Time;durP1;ratioP1;P1;durP2;ratioP2;P2;SDS_P1;SDS_P2;PMS_P1;PMS_P2;Temp;Humidity;BMP_temperature;BMP_pressure;BME280_temperature;BME280_humidity;BME280_pressure;Samples;Min_cycle;Max_cycle;Signal;HPM_P1;HPM_P2
2022/05/06 00:01:40;;;;;;;7.70;5.47;;;17.30;95.00;;;;;;5113993;28;20027;-68
2022/05/06 00:04:06;;;;;;;5.93;5.28;;;17.20;95.10;;;;;;5113898;28;20114;-68
2022/05/06 00:06:33;;;;;;;7.15;5.15;;;17.20;95.40;;;;;;5113884;28;20098;-68
2022/05/06 00:08:59;;;;;;;10.13;5.57;;;17.20;95.80;;;;;;5095495;28;20035;-68
2022/05/06 00:11:25;;;;;;;7.85;5.07;;;17.10;95.80;;;;;;5113850;28;20025;-68
2022/05/06 00:13:52;;;;;;;5.80;5.15;;;17.10;95.90;;;;;;5113782;28;20383;-68
2022/05/06 00:16:22;;;;;;;7.60;5.55;;;17.20;96.10;;;;;;5113462;28;20100;-68
2022/05/06 00:18:48;;;;;;;11.45;5.70;;;17.10;96.40;;;;;;5095177;28;20028;-68
2022/05/06 00:21:14;;;;;;;13.55;5.63;;;17.10;96.80;;;;;;5113691;28;20093;-70
2022/05/06 00:23:40;;;;;;;9.68;5.38;;;17.10;97.20;;;;;;5113759;28;20027;-69
2022/05/06 00:26:05;;;;;;;7.60;5.00;;;17.00;97.40;;;;;;5113524;28;20078;-70
2022/05/06 00:28:31;;;;;;;12.65;5.45;;;16.90;97.80;;;;;;5113866;28;20051;-70
2022/05/06 00:30:57;;;;;;;11.40;5.78;;;17.00;97.90;;;;;;5113352;28;20107;-69
2022/05/06 00:33:24;;;;;;;8.02;5.68;;;16.90;98.00;;;;;;5113530;28;20023;-69
2022/05/06 00:35:54;;;;;;;10.40;5.63;;;16.90;98.40;;;;;;5095027;28;20456;-69
2022/05/06 00:38:20;;;;;;;6.50;5.43;;;16.80;98.70;;;;;;5113353;28;20042;-69
2022/05/06 00:40:46;;;;;;;8.05;5.18;;;16.80;99.10;;;;;;5113549;28;20113;-69
2022/05/06 00:43:12;;;;;;;10.25;5.20;;;16.70;99.20;;;;;;5095076;28;20041;-69
2022/05/06 00:45:55;;;;;;;8.00;5.85;;;16.70;99.50;;;;;;5113678;28;20098;-70
2022/05/06 00:48:26;;;;;;;7.03;5.22;;;16.70;99.60;;;;;;5113447;28;20034;-70
2022/05/06 00:50:54;;;;;;;10.23;5.22;;;16.60;99.90;;;;;;5113654;28;20571;-70
2022/05/06 00:53:20;;;;;;;6.07;4.80;;;16.60;99.90;;;;;;5113333;28;20027;-68
2022/05/06 00:55:46;;;;;;;6.90;4.97;;;16.60;99.90;;;;;;5113346;28;20081;-69
2022/05/06 00:58:14;;;;;;;8.48;5.60;;;16.50;99.90;;;;;;5113288;28;20020;-69
2022/05/06 01:00:40;;;;;;;8.57;5.22;;;16.50;99.90;;;;;;5113324;28;20024;-68
2022/05/06 01:03:06;;;;;;;7.50;5.78;;;16.40;99.90;;;;;;5113224;28;20042;-68
2022/05/06 01:05:32;;;;;;;7.07;5.68;;;16.40;99.90;;;;;;5113223;28;20020;-68
2022/05/06 01:07:58;;;;;;;8.38;5.32;;;16.40;99.90;;;;;;5113510;28;20460;-68
2022/05/06 01:10:24;;;;;;;10.23;5.07;;;16.40;99.90;;;;;;5113280;28;20084;-69
2022/05/06 01:12:50;;;;;;;7.07;5.15;;;16.40;99.90;;;;;;5113478;28;20059;-68
2022/05/06 01:15:20;;;;;;;7.93;5.30;;;16.40;99.90;;;;;;5094820;28;20024;-70
2022/05/06 01:17:49;;;;;;;6.18;5.15;;;16.40;99.90;;;;;;5113140;28;20020;-68
2022/05/06 01:20:17;;;;;;;6.10;5.18;;;16.40;99.90;;;;;;5112888;28;20027;-68
2022/05/06 01:22:44;;;;;;;9.82;5.22;;;16.30;99.90;;;;;;5112710;28;20441;-69
2022/05/06 01:25:11;;;;;;;8.05;5.53;;;16.40;99.90;;;;;;5112858;28;20069;-68
2022/05/06 01:28:08;;;;;;;11.57;5.63;;;16.30;99.90;;;;;;5094797;28;20059;-69
2022/05/06 01:30:40;;;;;;;7.00;5.35;;;16.30;99.90;;;;;;5010298;28;20061;-69
2022/05/06 01:33:07;;;;;;;6.40;5.57;;;16.30;99.90;;;;;;5010398;28;20153;-69
2022/05/06 01:35:46;;;;;;;6.57;5.45;;;16.20;99.90;;;;;;5010344;28;20163;-69
2022/05/06 01:38:26;;;;;;;7.55;5.70;;;16.10;99.90;;;;;;4993844;28;20185;-69
2022/05/06 01:41:02;;;;;;;8.32;5.53;;;16.10;99.90;;;;;;5010328;28;20478;-69
2022/05/06 01:43:42;;;;;;;13.35;5.25;;;16.00;99.90;;;;;;5010212;28;20050;-68
2022/05/06 01:46:13;;;;;;;7.45;5.03;;;16.00;99.90;;;;;;5010285;28;20383;-68
2022/05/06 01:48:41;;;;;;;7.35;5.38;;;16.00;99.90;;;;;;5011178;28;20038;-69
2022/05/06 01:51:14;;;;;;;6.32;5.45;;;16.00;99.90;;;;;;5013966;28;20053;-68
2022/05/06 01:53:41;;;;;;;7.93;5.30;;;16.00;99.90;;;;;;4997112;28;20487;-69
2022/05/06 01:56:08;;;;;;;6.30;5.70;;;16.00;99.90;;;;;;5013637;28;20034;-70
2022/05/06 01:58:34;;;;;;;9.05;5.72;;;16.10;99.90;;;;;;5013529;28;20591;-70
2022/05/06 02:01:00;;;;;;;6.82;5.53;;;16.10;99.90;;;;;;5013513;28;20546;-70
2022/05/06 02:06:11;;;;;;;7.47;5.53;;;16.20;99.90;;;;;;5032581;28;20042;-70
2022/05/06 02:08:38;;;;;;;8.35;6.03;;;16.20;99.90;;;;;;5097831;28;20428;-70
2022/05/06 02:11:05;;;;;;;8.13;5.88;;;16.20;99.90;;;;;;5116143;28;20103;-70
2022/05/06 02:13:33;;;;;;;7.20;5.28;;;16.20;99.90;;;;;;5116009;28;20027;-70
2022/05/06 02:15:59;;;;;;;7.10;5.40;;;16.20;99.90;;;;;;5097690;28;20410;-70
2022/05/06 02:18:26;;;;;;;5.90;5.28;;;16.20;99.90;;;;;;5115937;28;20479;-70
2022/05/06 02:20:56;;;;;;;6.13;5.53;;;16.20;99.90;;;;;;5115997;28;20369;-70
2022/05/06 02:23:22;;;;;;;7.68;4.88;;;16.20;99.90;;;;;;5115737;28;20426;-70
2022/05/06 02:25:48;;;;;;;6.07;5.30;;;16.10;99.90;;;;;;5115612;28;20078;-70
2022/05/06 02:28:14;;;;;;;12.40;5.30;;;16.10;99.90;;;;;;5115734;28;20027;-70
2022/05/06 02:33:25;;;;;;;6.80;5.38;;;16.10;99.90;;;;;;5115477;28;20035;-71
2022/05/06 02:35:52;;;;;;;12.75;6.30;;;16.00;99.90;;;;;;5115613;28;20103;-69
2022/05/06 02:38:19;;;;;;;8.55;5.80;;;16.00;99.90;;;;;;5115890;28;20126;-70
2022/05/06 02:40:45;;;;;;;11.88;5.63;;;16.00;99.90;;;;;;5097291;28;20043;-71
2022/05/06 02:43:11;;;;;;;6.97;5.18;;;16.00;99.90;;;;;;5097101;28;20039;-68
2022/05/06 02:45:37;;;;;;;7.13;5.43;;;16.00;99.90;;;;;;5097091;28;20381;-72
2022/05/06 02:48:03;;;;;;;10.93;5.28;;;16.00;99.90;;;;;;5115395;28;20019;-69
2022/05/06 02:50:29;;;;;;;8.75;5.57;;;16.00;99.90;;;;;;5115332;28;20043;-69
2022/05/06 02:52:55;;;;;;;5.85;5.20;;;16.00;99.90;;;;;;5115350;28;20088;-69
2022/05/06 02:55:24;;;;;;;9.50;5.15;;;16.00;99.90;;;;;;5114890;28;20387;-70
2022/05/06 02:57:51;;;;;;;6.82;4.55;;;15.90;99.90;;;;;;5115166;28;20031;-70
2022/05/06 03:00:17;;;;;;;6.82;4.82;;;16.00;99.90;;;;;;5114859;28;20020;-69
2022/05/06 03:02:43;;;;;;;6.55;4.85;;;15.90;99.90;;;;;;5115059;28;20027;-70
2022/05/06 03:05:10;;;;;;;6.95;4.90;;;15.90;99.90;;;;;;5096816;28;20394;-69
2022/05/06 03:07:36;;;;;;;11.07;4.90;;;15.90;99.90;;;;;;5096649;28;20019;-69
2022/05/06 03:10:03;;;;;;;7.38;5.38;;;15.90;99.90;;;;;;5114942;28;20023;-70
2022/05/06 03:12:30;;;;;;;6.90;4.85;;;15.80;99.90;;;;;;5114973;28;20483;-70
2022/05/06 03:15:07;;;;;;;6.07;5.10;;;15.80;99.90;;;;;;5114871;28;20023;-70
2022/05/06 03:17:34;;;;;;;9.23;5.45;;;15.80;99.90;;;;;;5114861;28;20103;-70
2022/05/06 03:20:00;;;;;;;6.55;4.57;;;15.80;99.90;;;;;;5114718;28;20500;-70
2022/05/06 03:22:27;;;;;;;8.23;5.43;;;15.80;99.90;;;;;;5114748;28;20028;-70
2022/05/06 03:24:52;;;;;;;5.38;4.70;;;15.80;99.90;;;;;;5114541;28;20119;-70
2022/05/06 03:30:04;;;;;;;7.90;5.25;;;15.80;99.90;;;;;;5114368;28;20479;-69
2022/05/06 03:32:31;;;;;;;8.57;5.10;;;15.70;99.90;;;;;;5114513;28;20022;-70
2022/05/06 03:34:57;;;;;;;9.07;5.10;;;15.70;99.90;;;;;;5114496;28;20469;-70
2022/05/06 03:37:25;;;;;;;8.55;5.13;;;15.70;99.90;;;;;;5114395;28;20027;-70
2022/05/06 03:39:51;;;;;;;8.25;5.30;;;15.70;99.90;;;;;;5114104;28;20365;-70
2022/05/06 03:42:16;;;;;;;6.72;5.45;;;15.70;99.90;;;;;;5114360;28;20027;-70
2022/05/06 03:44:42;;;;;;;13.25;5.72;;;15.70;99.90;;;;;;5114196;28;20039;-70
2022/05/06 03:47:08;;;;;;;11.95;6.00;;;15.60;99.90;;;;;;5114505;28;20594;-70
2022/05/06 03:49:34;;;;;;;10.25;5.38;;;15.60;99.90;;;;;;5095813;28;20028;-69
2022/05/06 03:52:00;;;;;;;35.03;6.13;;;15.70;99.90;;;;;;5114251;28;20034;-69
2022/05/06 03:54:26;;;;;;;45.92;6.47;;;15.70;99.90;;;;;;5095779;28;20385;-69
2022/05/06 03:56:52;;;;;;;14.70;5.85;;;15.60;99.90;;;;;;5095796;28;20031;-71
2022/05/06 03:59:18;;;;;;;7.85;5.85;;;15.60;99.90;;;;;;5113676;28;20486;-70
2022/05/06 04:01:44;;;;;;;11.90;6.03;;;15.60;99.90;;;;;;5113790;28;20027;-70
2022/05/06 04:04:10;;;;;;;13.30;5.60;;;15.60;99.90;;;;;;5113933;28;20036;-70
2022/05/06 04:06:35;;;;;;;10.43;4.88;;;15.60;99.90;;;;;;5113924;28;20020;-69
2022/05/06 04:09:01;;;;;;;9.00;5.28;;;15.60;99.90;;;;;;5095567;28;20028;-69
2022/05/06 04:11:27;;;;;;;7.78;5.40;;;15.60;99.90;;;;;;5113191;28;20020;-68
2022/05/06 04:13:53;;;;;;;7.68;5.15;;;15.60;99.90;;;;;;5113745;28;20032;-69
2022/05/06 04:16:19;;;;;;;5.35;4.80;;;15.60;99.90;;;;;;5113473;28;20072;-68
2022/05/06 04:18:45;;;;;;;6.70;4.80;;;15.50;99.90;;;;;;5095420;28;20027;-68
2022/05/06 04:23:55;;;;;;;8.63;5.00;;;15.60;99.90;;;;;;5113381;28;20080;-67
2022/05/06 04:26:20;;;;;;;9.82;5.57;;;15.60;99.90;;;;;;5113310;28;20048;-68
2022/05/06 04:28:46;;;;;;;6.03;4.65;;;15.60;99.90;;;;;;5113643;28;20058;-68
2022/05/06 04:31:12;;;;;;;17.63;5.80;;;15.60;99.90;;;;;;5113588;28;20442;-68
2022/05/06 04:33:39;;;;;;;25.23;6.43;;;15.70;99.90;;;;;;5095335;28;20028;-66
2022/05/06 04:36:06;;;;;;;7.15;5.53;;;15.70;99.90;;;;;;5095237;28;20020;-68
2022/05/06 04:38:32;;;;;;;10.80;6.18;;;15.70;99.90;;;;;;5113622;28;20032;-69
2022/05/06 04:40:59;;;;;;;9.55;6.60;;;15.80;99.90;;;;;;5113470;28;20517;-68
2022/05/06 04:43:26;;;;;;;11.02;7.30;;;15.80;99.90;;;;;;5113454;28;20032;-68
2022/05/06 04:45:52;;;;;;;19.88;8.07;;;15.80;99.90;;;;;;5095112;28;20422;-68
2022/05/06 04:48:19;;;;;;;10.32;6.78;;;15.80;99.90;;;;;;5113399;28;20024;-69
2022/05/06 04:50:45;;;;;;;17.40;6.57;;;15.80;99.90;;;;;;5113431;28;20023;-69
2022/05/06 04:53:13;;;;;;;12.63;6.40;;;15.90;99.90;;;;;;5095119;28;20468;-69
2022/05/06 04:55:49;;;;;;;10.93;6.65;;;15.90;99.90;;;;;;5113415;28;20034;-69
2022/05/06 04:58:16;;;;;;;10.73;7.05;;;15.90;99.90;;;;;;5113386;28;20030;-69
2022/05/06 05:00:42;;;;;;;9.27;7.07;;;16.00;99.90;;;;;;5113322;28;20023;-70
2022/05/06 05:03:08;;;;;;;10.20;6.28;;;16.00;99.90;;;;;;5113268;28;20122;-69
2022/05/06 05:05:34;;;;;;;13.57;8.07;;;16.00;99.90;;;;;;5095023;28;20116;-70
2022/05/06 05:08:00;;;;;;;12.18;7.97;;;16.10;99.90;;;;;;5113292;28;20082;-70
2022/05/06 05:10:26;;;;;;;9.07;6.70;;;16.10;99.90;;;;;;5094726;28;20031;-70
2022/05/06 05:12:52;;;;;;;14.23;7.20;;;16.20;99.90;;;;;;5113254;28;20020;-67
2022/05/06 05:15:18;;;;;;;7.93;6.53;;;16.30;99.90;;;;;;5113124;28;20035;-66
2022/05/06 05:17:45;;;;;;;13.50;6.85;;;16.30;99.90;;;;;;5113104;28;20027;-66
2022/05/06 05:20:15;;;;;;;12.32;6.10;;;16.30;99.90;;;;;;5112723;28;20035;-66
2022/05/06 05:22:41;;;;;;;15.63;6.03;;;16.40;99.90;;;;;;5095731;28;20024;-66
2022/05/06 05:25:08;;;;;;;15.95;6.78;;;16.40;99.90;;;;;;5116915;28;20444;-67
2022/05/06 05:27:36;;;;;;;12.80;5.90;;;16.50;99.90;;;;;;5116601;28;20027;-65
2022/05/06 05:30:04;;;;;;;23.15;6.80;;;16.50;99.90;;;;;;5105467;28;20020;-66
2022/05/06 05:32:30;;;;;;;12.43;6.22;;;16.60;99.90;;;;;;5116676;28;20059;-66
2022/05/06 05:34:56;;;;;;;10.25;6.93;;;16.60;99.90;;;;;;5116752;28;20472;-66
2022/05/06 05:37:22;;;;;;;21.90;7.78;;;16.70;99.90;;;;;;5116618;28;20063;-66
2022/05/06 05:39:48;;;;;;;10.88;6.50;;;16.70;99.90;;;;;;5116494;28;20032;-68
2022/05/06 05:42:21;;;;;;;19.20;7.28;;;16.80;99.90;;;;;;5116550;28;20032;-67
2022/05/06 05:50:15;;;;;;;11.50;7.80;;;17.00;99.90;;;;;;5116278;28;20054;-66
2022/05/06 05:52:41;;;;;;;17.80;8.00;;;17.10;99.90;;;;;;5098082;28;20056;-66
2022/05/06 05:55:08;;;;;;;17.85;7.80;;;17.10;99.90;;;;;;5098058;28;20198;-67
2022/05/06 05:57:34;;;;;;;17.77;9.23;;;17.10;99.90;;;;;;5116274;28;20023;-67
2022/05/06 06:00:00;;;;;;;14.85;9.15;;;17.20;99.90;;;;;;5097717;28;20543;-66
2022/05/06 06:02:26;;;;;;;14.18;8.55;;;17.30;99.90;;;;;;5116143;28;20499;-67
2022/05/06 06:04:52;;;;;;;77.80;12.90;;;17.30;99.90;;;;;;5097677;28;20108;-66
2022/05/06 06:07:18;;;;;;;16.35;9.18;;;17.40;99.90;;;;;;5116103;28;20448;-66
2022/05/06 06:09:44;;;;;;;17.80;10.15;;;17.40;99.90;;;;;;5116048;28;20084;-67
2022/05/06 06:12:10;;;;;;;20.83;9.02;;;17.50;99.90;;;;;;5115175;28;20023;-66
2022/05/06 06:14:36;;;;;;;15.65;9.52;;;17.50;99.90;;;;;;5095389;28;20042;-66
2022/05/06 06:17:02;;;;;;;23.35;9.43;;;17.60;99.90;;;;;;5114718;28;20111;-66
2022/05/06 06:19:28;;;;;;;18.02;8.45;;;17.60;99.90;;;;;;5101985;28;20488;-66
2022/05/06 06:21:54;;;;;;;15.00;7.68;;;17.70;99.90;;;;;;5094777;28;20070;-66
2022/05/06 06:24:20;;;;;;;14.23;7.53;;;17.80;99.90;;;;;;5104328;28;20111;-65
2022/05/06 06:26:46;;;;;;;16.35;8.63;;;17.80;99.90;;;;;;5091302;28;20443;-65
2022/05/06 06:29:11;;;;;;;22.98;10.35;;;17.90;99.90;;;;;;5093737;28;20024;-66
2022/05/06 06:31:38;;;;;;;24.88;10.10;;;17.90;99.90;;;;;;5095114;28;20460;-65
2022/05/06 06:34:04;;;;;;;17.63;9.57;;;18.00;99.90;;;;;;5094124;28;20024;-65
2022/05/06 06:36:30;;;;;;;19.33;9.50;;;18.00;99.90;;;;;;5095127;28;20097;-64
2022/05/06 06:38:56;;;;;;;17.60;9.55;;;18.00;99.90;;;;;;5093501;28;20028;-64
2022/05/06 06:41:22;;;;;;;27.70;10.35;;;18.10;99.90;;;;;;5094906;28;20054;-65
2022/05/06 06:43:48;;;;;;;19.67;10.60;;;18.10;99.90;;;;;;5093550;28;20036;-64
2022/05/06 06:46:15;;;;;;;19.85;10.45;;;18.20;99.90;;;;;;5094837;28;20032;-65
2022/05/06 06:48:41;;;;;;;19.55;10.55;;;18.20;99.90;;;;;;5094609;28;20789;-65
2022/05/06 06:51:07;;;;;;;39.53;10.80;;;18.20;99.90;;;;;;5094595;28;20460;-67
2022/05/06 06:53:33;;;;;;;15.73;8.98;;;18.20;99.90;;;;;;5094739;28;20039;-68
2022/05/06 06:55:59;;;;;;;18.65;9.02;;;18.20;99.90;;;;;;5094648;28;20124;-72
2022/05/06 06:58:28;;;;;;;21.15;9.80;;;18.30;99.90;;;;;;5094298;28;20043;-71
2022/05/06 07:00:54;;;;;;;27.48;10.25;;;18.30;99.90;;;;;;5094507;28;20024;-71
2022/05/06 07:03:20;;;;;;;18.67;9.57;;;18.40;99.90;;;;;;5093916;28;20529;-68
2022/05/06 07:13:59;;;;;;;17.52;10.48;;;18.60;99.90;;;;;;5094180;28;20081;-71
2022/05/06 07:16:26;;;;;;;54.60;30.23;;;18.60;99.90;;;;;;5094355;28;20480;-68
2022/05/06 07:18:52;;;;;;;52.55;27.88;;;18.70;99.90;;;;;;5094245;28;20420;-67
2022/05/06 07:21:18;;;;;;;76.60;38.13;;;19.00;99.90;;;;;;5094206;28;20055;-69
2022/05/06 07:23:44;;;;;;;76.88;33.97;;;19.20;99.90;;;;;;5094207;28;20043;-67
2022/05/06 07:26:11;;;;;;;69.22;31.00;;;19.30;99.90;;;;;;5092542;28;20087;-68
2022/05/06 07:28:38;;;;;;;71.82;27.65;;;19.40;99.90;;;;;;5092736;28;20047;-68
2022/05/06 07:31:03;;;;;;;71.40;33.53;;;19.60;99.90;;;;;;5093960;28;20020;-65
2022/05/06 07:33:29;;;;;;;81.68;30.92;;;19.60;99.90;;;;;;5093973;28;20110;-66
2022/05/06 07:35:56;;;;;;;72.10;28.73;;;;;;;;;;5094018;28;20028;-68
2022/05/06 07:38:22;;;;;;;36.97;17.35;;;19.70;99.90;;;;;;5093814;28;20051;-67
2022/05/06 07:40:48;;;;;;;68.75;32.53;;;19.80;99.90;;;;;;5093772;28;20028;-67
2022/05/06 07:43:15;;;;;;;49.90;25.42;;;19.80;99.90;;;;;;5093386;28;20485;-67
2022/05/06 07:45:41;;;;;;;68.03;27.13;;;19.80;99.90;;;;;;5093187;28;20027;-68
2022/05/06 07:48:08;;;;;;;51.33;25.40;;;19.90;99.90;;;;;;5093402;28;20035;-67
2022/05/06 07:50:37;;;;;;;52.05;23.63;;;19.90;99.90;;;;;;5093325;28;20125;-68
2022/05/06 07:53:03;;;;;;;48.42;23.88;;;20.00;99.90;;;;;;5092453;28;20050;-67
2022/05/06 07:55:29;;;;;;;33.72;13.35;;;20.10;99.90;;;;;;5091479;28;20032;-67
2022/05/06 07:57:57;;;;;;;41.17;21.50;;;20.00;99.90;;;;;;5075039;28;20491;-68
2022/05/06 08:00:24;;;;;;;41.17;20.90;;;20.00;99.90;;;;;;5093464;28;20024;-67
2022/05/06 08:05:37;;;;;;;36.38;19.90;;;20.10;99.90;;;;;;5093629;28;20035;-68
2022/05/06 08:08:03;;;;;;;38.33;17.77;;;20.20;99.90;;;;;;5074973;28;20346;-67
2022/05/06 08:10:29;;;;;;;40.30;18.77;;;20.20;99.90;;;;;;5093117;28;20039;-68
2022/05/06 08:12:55;;;;;;;27.63;14.55;;;20.20;99.90;;;;;;5092951;28;20069;-71
2022/05/06 08:15:21;;;;;;;36.40;18.33;;;20.20;99.90;;;;;;5093161;28;20516;-68
2022/05/06 08:17:47;;;;;;;34.40;16.77;;;20.30;99.90;;;;;;5075019;28;20390;-68
2022/05/06 08:20:13;;;;;;;29.13;15.00;;;20.30;99.90;;;;;;5093058;28;20024;-66
2022/05/06 08:22:41;;;;;;;28.77;15.55;;;20.30;99.90;;;;;;5092977;28;20472;-68
2022/05/06 08:25:08;;;;;;;35.33;13.02;;;20.40;99.90;;;;;;5092291;28;20085;-66
2022/05/06 08:27:37;;;;;;;34.10;15.18;;;20.30;99.90;;;;;;5093066;28;20029;-68
2022/05/06 08:30:05;;;;;;;23.77;15.20;;;20.40;99.90;;;;;;5092876;28;20089;-67
2022/05/06 08:32:31;;;;;;;24.40;12.70;;;20.40;99.90;;;;;;5093085;28;20368;-68
2022/05/06 08:34:57;;;;;;;26.27;15.38;;;20.30;99.90;;;;;;5081786;28;20063;-68
2022/05/06 08:37:24;;;;;;;22.88;13.10;;;20.40;99.90;;;;;;5092969;28;20432;-69
2022/05/06 08:39:51;;;;;;;23.60;13.35;;;20.20;99.90;;;;;;5074810;28;20024;-70
2022/05/06 08:42:19;;;;;;;26.70;13.95;;;20.20;99.90;;;;;;5091915;28;20035;-68
2022/05/06 08:53:03;;;;;;;25.38;13.50;;;20.10;99.90;;;;;;5092835;28;20039;-71
2022/05/06 08:55:29;;;;;;;28.83;12.48;;;20.10;99.90;;;;;;5092605;28;20029;-70
2022/05/06 08:57:55;;;;;;;25.30;13.50;;;20.30;99.90;;;;;;5076271;28;20074;-72
2022/05/06 09:00:26;;;;;;;22.17;12.95;;;20.40;99.90;;;;;;5096980;28;20031;-70
2022/05/06 09:02:52;;;;;;;20.07;12.13;;;20.30;99.90;;;;;;5096781;28;20456;-69
2022/05/06 09:05:20;;;;;;;27.33;12.80;;;20.50;99.90;;;;;;5096913;28;20256;-69
2022/05/06 09:07:59;;;;;;;28.08;12.80;;;20.40;99.90;;;;;;5096916;28;20380;-68
2022/05/06 09:10:26;;;;;;;26.52;12.50;;;20.50;99.90;;;;;;5096793;28;20116;-69
2022/05/06 09:13:02;;;;;;;27.25;12.23;;;20.60;99.90;;;;;;5096912;28;20031;-70
2022/05/06 09:18:24;;;;;;;18.50;11.57;;;20.80;99.90;;;;;;5096418;28;20035;-69
2022/05/06 09:20:50;;;;;;;25.50;11.77;;;21.10;99.90;;;;;;5077955;28;20024;-68
2022/05/06 09:23:25;;;;;;;25.35;11.90;;;21.30;99.90;;;;;;5096179;28;20039;-69
2022/05/06 09:25:55;;;;;;;19.65;11.43;;;21.40;99.90;;;;;;5095921;28;20449;-72
2022/05/06 09:28:29;;;;;;;27.02;12.90;;;21.60;99.90;;;;;;5096414;28;20103;-69
2022/05/06 09:30:59;;;;;;;24.25;11.85;;;21.30;99.90;;;;;;5096512;28;20027;-68
2022/05/06 09:33:25;;;;;;;30.92;11.85;;;21.50;99.90;;;;;;5078009;28;20073;-68
2022/05/06 09:35:51;;;;;;;26.27;11.40;;;21.50;99.90;;;;;;5095911;28;20028;-68
2022/05/06 09:38:17;;;;;;;17.98;10.55;;;21.50;99.90;;;;;;5077137;28;20024;-68
2022/05/06 09:40:43;;;;;;;19.98;11.80;;;21.50;99.90;;;;;;5076329;28;20028;-68
2022/05/06 09:43:16;;;;;;;29.52;11.05;;;21.80;99.90;;;;;;5095685;28;20423;-68
2022/05/06 09:45:44;;;;;;;22.67;10.75;;;22.00;99.90;;;;;;5076800;28;20023;-68
2022/05/06 09:48:13;;;;;;;13.05;7.25;;;;;;;;;;5094117;28;20413;-71
2022/05/06 09:50:44;;;;;;;13.15;7.30;;;22.20;99.90;;;;;;5110425;28;20112;-70
2022/05/06 09:53:11;;;;;;;16.73;8.10;;;;;;;;;;5095812;28;20460;-70
2022/05/06 09:55:39;;;;;;;12.18;7.00;;;22.10;97.70;;;;;;5095914;28;20047;-71
2022/05/06 09:58:06;;;;;;;12.10;6.93;;;22.20;96.20;;;;;;5077600;28;20032;-69
2022/05/06 10:00:32;;;;;;;10.05;6.90;;;22.20;96.20;;;;;;5095706;28;20034;-69
2022/05/06 10:03:00;;;;;;;11.57;7.50;;;22.40;97.40;;;;;;5077407;28;20132;-70
2022/05/06 10:05:28;;;;;;;12.02;7.18;;;22.50;96.10;;;;;;5095755;28;20112;-71
2022/05/06 10:08:03;;;;;;;13.65;6.65;;;22.50;95.80;;;;;;5095780;28;20028;-71
2022/05/06 10:10:32;;;;;;;9.55;6.53;;;22.50;95.30;;;;;;5094468;28;20464;-72
2022/05/06 10:13:03;;;;;;;10.05;6.38;;;22.40;95.00;;;;;;5095635;28;20069;-72
2022/05/06 10:15:30;;;;;;;8.45;5.97;;;22.50;94.90;;;;;;5095663;28;20032;-71
2022/05/06 10:18:02;;;;;;;15.10;6.45;;;22.70;94.30;;;;;;5077304;28;20032;-70
2022/05/06 10:20:34;;;;;;;;;;;22.60;95.20;;;;;;5095500;28;20024;-68
2022/05/06 10:23:00;;;;;;;;;;;22.50;95.20;;;;;;5095713;28;19968;-68
2022/05/06 10:25:41;;;;;;;6.45;5.53;;;22.80;94.10;;;;;;5095065;28;19916;-70
2022/05/06 10:34:16;;;;;;;8.85;5.38;;;22.70;93.40;;;;;;5094955;28;20046;-71
2022/05/06 10:36:48;;;;;;;8.60;6.03;;;22.70;93.70;;;;;;5094822;28;20395;-70
2022/05/06 10:39:24;;;;;;;11.82;5.47;;;22.80;93.10;;;;;;5076792;28;20107;-70
2022/05/06 10:42:10;;;;;;;12.95;6.00;;;22.90;92.40;;;;;;5094837;28;20039;-72
2022/05/06 10:44:41;;;;;;;11.00;5.47;;;23.00;93.80;;;;;;5094711;28;20028;-72
2022/05/06 10:47:13;;;;;;;12.35;5.78;;;23.10;93.30;;;;;;5076689;28;20039;-68
2022/05/06 10:49:39;;;;;;;7.30;5.63;;;23.30;92.60;;;;;;5094625;28;20106;-73
2022/05/06 10:52:14;;;;;;;8.43;5.80;;;23.30;92.80;;;;;;5094832;28;20162;-75
2022/05/06 10:54:47;;;;;;;8.98;5.75;;;23.30;93.30;;;;;;5076346;28;20036;-73
2022/05/06 10:57:13;;;;;;;7.15;4.68;;;23.30;92.00;;;;;;5094751;28;20020;-73
2022/05/06 10:59:49;;;;;;;5.18;4.55;;;23.40;90.70;;;;;;5094671;28;20031;-71
2022/05/06 11:02:14;;;;;;;8.07;5.47;;;23.40;90.20;;;;;;5076460;28;20028;-73
2022/05/06 11:04:43;;;;;;;8.35;5.20;;;23.30;90.90;;;;;;5076262;28;20036;-74
2022/05/06 11:07:13;;;;;;;18.17;6.38;;;23.50;90.50;;;;;;5093276;28;20058;-73
2022/05/06 11:09:39;;;;;;;6.95;5.18;;;23.60;90.50;;;;;;5094542;28;20024;-70
2022/05/06 11:12:06;;;;;;;8.98;5.28;;;23.60;89.80;;;;;;5094421;28;20031;-67
2022/05/06 11:14:33;;;;;;;9.70;5.47;;;23.50;88.10;;;;;;5094291;28;20122;-69
2022/05/06 11:17:18;;;;;;;9.13;5.93;;;23.30;88.50;;;;;;5094341;28;20595;-71
2022/05/06 11:19:44;;;;;;;8.57;5.82;;;23.40;87.40;;;;;;5096723;28;20028;-73
2022/05/06 11:22:11;;;;;;;12.38;5.47;;;23.50;86.80;;;;;;5114465;28;20027;-72
2022/05/06 11:24:37;;;;;;;9.95;5.85;;;23.50;87.00;;;;;;5114478;28;20110;-72
2022/05/06 11:27:17;;;;;;;7.70;5.68;;;23.50;88.10;;;;;;5095871;28;20396;-71
2022/05/06 11:30:01;;;;;;;19.00;5.97;;;23.80;88.20;;;;;;5114479;28;20437;-72
2022/05/06 11:32:28;;;;;;;7.25;5.00;;;24.00;88.70;;;;;;5114478;28;20102;-74
2022/05/06 11:35:13;;;;;;;7.40;5.47;;;24.10;87.60;;;;;;5114061;28;20097;-73
2022/05/06 11:37:41;;;;;;;12.32;5.85;;;24.20;85.60;;;;;;5093224;28;20036;-74
2022/05/06 11:40:32;;;;;;;12.23;6.63;;;24.20;86.10;;;;;;5093262;28;20032;-73
2022/05/06 11:43:03;;;;;;;9.25;6.55;;;24.10;87.90;;;;;;5093840;28;20028;-70
2022/05/06 11:48:15;;;;;;;10.43;6.82;;;23.70;86.50;;;;;;5113831;28;20035;-72
2022/05/06 11:50:43;;;;;;;12.27;7.28;;;23.70;87.30;;;;;;5114227;28;20098;-72
2022/05/06 11:53:11;;;;;;;7.07;6.00;;;23.80;87.50;;;;;;5113752;28;20391;-71
2022/05/06 11:55:40;;;;;;;12.35;6.22;;;23.90;87.30;;;;;;5114098;28;20027;-72
2022/05/06 11:58:09;;;;;;;13.98;6.00;;;23.90;88.30;;;;;;5113392;28;20026;-72
2022/05/06 12:00:35;;;;;;;12.38;5.82;;;24.00;88.40;;;;;;5113610;28;20027;-72
2022/05/06 12:03:05;;;;;;;13.80;6.07;;;24.10;86.60;;;;;;5113912;28;20368;-71
2022/05/06 12:05:34;;;;;;;8.70;6.30;;;23.90;85.90;;;;;;5113852;28;20028;-71
2022/05/06 12:08:00;;;;;;;11.45;5.72;;;24.00;86.20;;;;;;5113776;28;20500;-72
2022/05/06 12:10:32;;;;;;;14.00;7.10;;;24.00;85.00;;;;;;5113842;28;20032;-72
2022/05/06 12:13:07;;;;;;;;;;;24.10;85.80;;;;;;5114185;28;20337;-70
2022/05/06 12:15:43;;;;;;;12.15;6.18;;;23.90;86.30;;;;;;5113763;28;19904;-73
2022/05/06 12:18:11;;;;;;;12.25;6.68;;;24.00;88.50;;;;;;5113765;28;20027;-70
2022/05/06 12:20:39;;;;;;;12.77;7.13;;;23.80;90.70;;;;;;5113714;28;20055;-71
2022/05/06 12:23:06;;;;;;;13.38;7.60;;;23.70;89.40;;;;;;5113567;28;20544;-72
2022/05/06 12:25:38;;;;;;;17.45;6.93;;;23.70;90.20;;;;;;5113391;28;20402;-72
2022/05/06 12:28:18;;;;;;;11.95;6.57;;;23.50;90.50;;;;;;5113662;28;20051;-70
2022/05/06 12:30:45;;;;;;;12.77;6.90;;;23.50;90.10;;;;;;5095386;28;20474;-72
2022/05/06 12:33:17;;;;;;;9.88;6.95;;;23.60;88.80;;;;;;5112930;28;20367;-72
2022/05/06 12:36:04;;;;;;;15.75;7.30;;;23.30;90.30;;;;;;5113476;28;20054;-72
2022/05/06 12:38:48;;;;;;;9.50;6.78;;;23.10;91.00;;;;;;5113476;28;20027;-72
2022/05/06 12:41:22;;;;;;;7.85;6.43;;;;;;;;;;5113332;28;20106;-71
2022/05/06 12:43:53;;;;;;;13.57;6.22;;;23.20;88.80;;;;;;5113325;28;20038;-70
2022/05/06 12:46:28;;;;;;;;;;;23.30;91.00;;;;;;5113904;28;20030;-70
2022/05/06 12:51:44;;;;;;;11.45;5.50;;;23.40;90.70;;;;;;5113425;28;20061;-70
2022/05/06 12:54:11;;;;;;;11.18;6.38;;;23.40;89.90;;;;;;5113243;28;20035;-70
2022/05/06 12:56:38;;;;;;;5.88;5.18;;;23.40;89.60;;;;;;5113385;28;20372;-70
2022/05/06 12:59:05;;;;;;;7.15;4.45;;;23.30;88.30;;;;;;5113268;28;20020;-72
2022/05/06 13:01:31;;;;;;;10.15;5.57;;;23.20;89.50;;;;;;5113291;28;20023;-72
2022/05/06 13:03:57;;;;;;;11.73;6.03;;;23.30;90.50;;;;;;5113211;28;20064;-72
2022/05/06 13:06:23;;;;;;;13.38;5.68;;;23.30;91.00;;;;;;5113306;28;20019;-71
2022/05/06 13:08:49;;;;;;;12.73;5.40;;;23.30;91.00;;;;;;5112798;28;20408;-72
2022/05/06 13:11:14;;;;;;;14.15;5.60;;;23.30;90.50;;;;;;5113101;28;20035;-71
2022/05/06 13:13:43;;;;;;;7.78;5.97;;;23.40;90.20;;;;;;5112732;28;20031;-71
2022/05/06 13:16:11;;;;;;;8.90;5.28;;;23.30;90.80;;;;;;5113041;28;20039;-71
2022/05/06 13:18:37;;;;;;;11.18;5.53;;;23.30;90.30;;;;;;5112638;28;20028;-71
2022/05/06 13:21:04;;;;;;;13.52;7.00;;;23.40;90.50;;;;;;5112868;28;20457;-72
2022/05/06 13:23:30;;;;;;;8.20;5.15;;;23.60;91.00;;;;;;5112975;28;20074;-71
2022/05/06 13:25:56;;;;;;;7.90;4.88;;;23.60;88.50;;;;;;5113000;28;20035;-71
2022/05/06 13:28:22;;;;;;;9.43;6.13;;;23.70;87.00;;;;;;5113327;28;20115;-72
2022/05/06 13:30:48;;;;;;;8.32;5.30;;;23.80;87.90;;;;;;5112992;28;20024;-72
2022/05/06 13:33:14;;;;;;;8.13;5.13;;;23.90;87.30;;;;;;5094700;28;20030;-71
2022/05/06 13:35:40;;;;;;;16.30;5.40;;;24.00;88.00;;;;;;5113241;28;20516;-72